Terminal Aerodrome Forecast
Issued by NWS

Home | Current Version | Previous Version | Text Only | Print | Product List | Glossary On
Versions: 1 2 3 4 5 6 7 8 9 10 11 12 13 14 15
800
FTUS42 KTBW 080536
TAFPIE
TAF
KPIE 080536Z 0806/0906 32005KT P6SM SKC
     FM081500 28009KT P6SM FEW030 SCT250
     FM081800 25015KT P6SM SCT035 SCT250
     FM082200 25021G27KT P6SM SCT050 SCT250=

USA.gov is the U.S. government's official web portal to all federal, state and local government web resources and services.